createdAt,value
2022-12-11T00:03:19.312Z,1.85
2022-12-11T00:08:38.226Z,1.84
2022-12-11T00:13:57.446Z,1.84
2022-12-11T00:19:17.053Z,1.81
2022-12-11T00:24:36.022Z,1.81
2022-12-11T00:29:55.625Z,1.8
2022-12-11T00:35:14.724Z,1.78
2022-12-11T00:40:34.212Z,1.78
2022-12-11T00:45:53.262Z,1.77
2022-12-11T00:51:12.995Z,1.8
2022-12-11T00:56:32.683Z,1.78
2022-12-11T01:01:51.647Z,1.77
2022-12-11T01:07:10.882Z,1.77
2022-12-11T01:12:30.113Z,1.75
2022-12-11T01:17:49.259Z,1.77
2022-12-11T01:23:08.560Z,1.77
2022-12-11T01:28:27.633Z,1.74
2022-12-11T01:33:47.299Z,1.75
2022-12-11T01:39:07.014Z,1.77
2022-12-11T01:44:26.033Z,1.75
2022-12-11T01:49:45.006Z,1.77
2022-12-11T01:55:03.918Z,1.75
2022-12-11T02:00:23.290Z,1.73
2022-12-11T02:05:42.339Z,1.74
2022-12-11T02:11:01.327Z,1.73
2022-12-11T02:16:20.063Z,1.74
2022-12-11T02:21:39.634Z,1.74
2022-12-11T02:26:58.876Z,1.75
2022-12-11T02:32:18.591Z,1.73
2022-12-11T02:37:37.734Z,1.73
2022-12-11T02:42:56.746Z,1.74
2022-12-11T02:48:16.412Z,1.73
2022-12-11T02:53:36.067Z,1.71
2022-12-11T02:58:58.454Z,1.68
2022-12-11T03:04:14.260Z,1.67
2022-12-11T03:09:33.798Z,1.66
2022-12-11T03:14:53.549Z,1.61
2022-12-11T03:20:13.347Z,1.61
2022-12-11T03:25:32.586Z,1.6
2022-12-11T03:30:52.461Z,1.57
2022-12-11T03:36:11.851Z,1.57
2022-12-11T03:41:31.333Z,1.54
2022-12-11T03:46:50.245Z,1.5
2022-12-11T03:52:09.230Z,1.5
2022-12-11T03:57:29.052Z,1.51
2022-12-11T04:02:48.087Z,1.5
2022-12-11T04:08:07.870Z,1.47
2022-12-11T04:13:27.087Z,1.44
2022-12-11T04:18:46.899Z,1.44
2022-12-11T04:24:06.036Z,1.42
2022-12-11T04:29:25.492Z,1.4
2022-12-11T04:34:44.537Z,1.39
2022-12-11T04:40:04.147Z,1.39
2022-12-11T04:45:23.420Z,1.36
2022-12-11T04:50:42.623Z,1.37
2022-12-11T04:56:02.186Z,1.35
2022-12-11T05:01:21.867Z,1.37
2022-12-11T05:06:41.342Z,1.32
2022-12-11T05:12:00.693Z,1.33
2022-12-11T05:17:19.720Z,1.32
2022-12-11T05:22:39.000Z,1.3
2022-12-11T05:27:58.022Z,1.33
2022-12-11T05:33:17.699Z,1.32
2022-12-11T05:38:36.688Z,1.32
2022-12-11T05:43:56.130Z,1.27
2022-12-11T05:49:19.708Z,1.33
2022-12-11T05:54:35.570Z,1.32
2022-12-11T05:59:54.639Z,1.3
2022-12-11T06:05:13.671Z,1.29
2022-12-11T06:10:32.454Z,1.29
2022-12-11T06:15:51.661Z,1.32
2022-12-11T06:21:11.763Z,1.32
2022-12-11T06:26:30.656Z,1.27
2022-12-11T06:31:49.534Z,1.29
2022-12-11T06:37:09.016Z,1.29
2022-12-11T06:42:28.545Z,1.27
2022-12-11T06:47:47.949Z,1.29
2022-12-11T06:53:07.059Z,1.27
2022-12-11T06:58:27.847Z,1.27
2022-12-11T07:03:46.404Z,1.29
2022-12-11T07:09:05.475Z,1.27
2022-12-11T07:14:24.601Z,1.27
2022-12-11T07:20:58.819Z,1.26
2022-12-11T07:25:05.154Z,1.26
2022-12-11T07:30:24.255Z,1.26
2022-12-11T07:35:42.296Z,1.26
2022-12-11T07:41:01.804Z,1.27
2022-12-11T07:46:20.745Z,1.26
2022-12-11T07:51:40.101Z,1.26
2022-12-11T07:56:59.726Z,1.27
2022-12-11T08:02:18.207Z,1.26
2022-12-11T08:07:37.141Z,1.26
2022-12-11T08:12:56.667Z,1.26
2022-12-11T08:18:15.936Z,1.26
2022-12-11T08:23:35.453Z,1.27
2022-12-11T08:28:54.867Z,1.27
2022-12-11T08:34:14.504Z,1.26
2022-12-11T08:39:34.301Z,1.27
2022-12-11T08:44:53.198Z,1.27
2022-12-11T08:50:12.049Z,1.29
2022-12-11T08:55:31.337Z,1.27
2022-12-11T09:00:50.803Z,1.29
2022-12-11T09:06:09.878Z,1.3
2022-12-11T09:11:29.571Z,1.29
2022-12-11T09:16:49.381Z,1.32
2022-12-11T09:22:08.325Z,1.32
2022-12-11T09:27:27.351Z,1.32
2022-12-11T09:32:46.318Z,1.33
2022-12-11T09:38:05.981Z,1.32
2022-12-11T09:43:26.488Z,1.33
2022-12-11T09:48:46.270Z,1.33
2022-12-11T09:54:05.340Z,1.35
2022-12-11T09:59:24.390Z,1.35
2022-12-11T10:04:43.949Z,1.35
2022-12-11T10:10:02.971Z,1.36
2022-12-11T10:15:21.882Z,1.37
2022-12-11T10:20:41.591Z,1.35
2022-12-11T10:26:00.451Z,1.35
2022-12-11T10:31:19.825Z,1.39
2022-12-11T10:36:39.321Z,1.36
2022-12-11T10:41:58.631Z,1.37
2022-12-11T10:47:17.995Z,1.37
2022-12-11T10:52:37.793Z,1.37
2022-12-11T10:57:57.464Z,1.42
2022-12-11T11:03:16.505Z,1.39
2022-12-11T11:08:36.290Z,1.42
2022-12-11T11:13:55.111Z,1.44
2022-12-11T11:19:14.143Z,1.4
2022-12-11T11:24:33.761Z,1.4
2022-12-11T11:29:53.458Z,1.43
2022-12-11T11:35:12.599Z,1.43
2022-12-11T11:40:32.134Z,1.42
2022-12-11T11:45:51.291Z,1.43
2022-12-11T11:51:10.432Z,1.43
2022-12-11T11:56:29.648Z,1.44
2022-12-11T12:01:48.941Z,1.46
2022-12-11T12:07:08.706Z,1.44
2022-12-11T12:12:31.092Z,1.44
2022-12-11T12:17:50.504Z,1.46
2022-12-11T12:23:05.918Z,1.44
2022-12-11T12:28:25.264Z,1.46
2022-12-11T12:33:44.665Z,1.44
2022-12-11T12:39:03.980Z,1.46
2022-12-11T12:44:23.073Z,1.47
2022-12-11T12:49:41.842Z,1.47
2022-12-11T12:55:00.889Z,1.47
2022-12-11T13:00:19.978Z,1.48
2022-12-11T13:05:39.113Z,1.47
2022-12-11T13:10:58.424Z,1.46
2022-12-11T13:16:18.602Z,1.48
2022-12-11T13:21:38.301Z,1.51
2022-12-11T13:26:57.373Z,1.5
2022-12-11T13:32:16.329Z,1.51
2022-12-11T13:37:35.908Z,1.5
2022-12-11T13:42:55.571Z,1.48
2022-12-11T13:48:16.880Z,1.5
2022-12-11T13:53:34.456Z,1.5
2022-12-11T13:58:53.531Z,1.5
2022-12-11T14:04:38.890Z,1.6
2022-12-11T14:09:58.161Z,1.53
2022-12-11T14:15:17.268Z,1.51
2022-12-11T14:20:36.857Z,1.53
2022-12-11T14:25:56.357Z,1.54
2022-12-11T14:31:15.764Z,1.53
2022-12-11T14:36:35.089Z,1.54
2022-12-11T14:41:54.239Z,1.54
2022-12-11T14:47:13.832Z,1.56
2022-12-11T14:52:33.227Z,1.58
2022-12-11T14:57:52.229Z,1.57
2022-12-11T15:03:11.111Z,1.58
2022-12-11T15:08:30.933Z,1.58
2022-12-11T15:13:49.528Z,1.57
2022-12-11T15:19:08.794Z,1.56
2022-12-11T15:24:27.682Z,1.57
2022-12-11T15:29:47.152Z,1.51
2022-12-11T15:35:06.823Z,1.53
2022-12-11T15:40:27.007Z,1.53
2022-12-11T15:45:45.967Z,1.53
2022-12-11T15:51:04.760Z,1.53
2022-12-11T15:56:24.537Z,1.51
2022-12-11T16:01:43.740Z,1.51
2022-12-11T16:07:02.602Z,1.51
2022-12-11T16:12:22.357Z,1.48
2022-12-11T16:17:41.706Z,1.5
2022-12-11T16:23:01.190Z,1.5
2022-12-11T16:28:20.229Z,1.47
2022-12-11T16:33:39.147Z,1.47
2022-12-11T16:38:58.544Z,1.44
2022-12-11T16:44:18.309Z,1.46
2022-12-11T16:49:37.214Z,1.44
2022-12-11T16:54:56.658Z,1.43
2022-12-11T17:00:16.288Z,1.42
2022-12-11T17:05:35.452Z,1.43
2022-12-11T17:10:54.372Z,1.39
2022-12-11T17:16:13.967Z,1.4
2022-12-11T17:21:32.965Z,1.42
2022-12-11T17:26:52.304Z,1.39
2022-12-11T17:32:11.697Z,1.42
2022-12-11T17:37:31.284Z,1.4
2022-12-11T17:42:50.593Z,1.39
2022-12-11T17:48:09.926Z,1.39
2022-12-11T17:53:28.819Z,1.37
2022-12-11T17:58:48.232Z,1.39
2022-12-11T18:05:22.346Z,1.39
2022-12-11T18:09:28.032Z,1.37
2022-12-11T18:14:46.392Z,1.36
2022-12-11T18:20:05.609Z,1.36
2022-12-11T18:25:25.004Z,1.39
2022-12-11T18:30:44.069Z,1.39
2022-12-11T18:36:03.790Z,1.39
2022-12-11T18:41:23.430Z,1.37
2022-12-11T18:46:42.869Z,1.37
2022-12-11T18:52:02.541Z,1.35
2022-12-11T18:57:22.063Z,1.36
2022-12-11T19:02:41.244Z,1.36
2022-12-11T19:08:00.234Z,1.36
2022-12-11T19:13:19.728Z,1.35
2022-12-11T19:18:39.561Z,1.36
2022-12-11T19:23:58.821Z,1.33
2022-12-11T19:29:17.983Z,1.37
2022-12-11T19:34:37.396Z,1.36
2022-12-11T19:39:56.640Z,1.33
2022-12-11T19:45:15.982Z,1.32
2022-12-11T19:50:35.489Z,1.33
2022-12-11T19:55:54.574Z,1.32
2022-12-11T20:01:13.807Z,1.29
2022-12-11T20:06:33.394Z,1.32
2022-12-11T20:11:52.379Z,1.29
2022-12-11T20:17:13.726Z,1.3
2022-12-11T20:22:31.220Z,1.29
2022-12-11T20:27:50.348Z,1.29
2022-12-11T20:33:09.774Z,1.27
2022-12-11T20:38:34.069Z,1.27
2022-12-11T20:43:47.155Z,1.25
2022-12-11T20:49:06.330Z,1.27
2022-12-11T20:54:25.859Z,1.25
2022-12-11T20:59:44.877Z,1.22
2022-12-11T21:05:04.125Z,1.23
2022-12-11T21:10:23.735Z,1.22
2022-12-11T21:15:42.912Z,1.23
2022-12-11T21:21:02.509Z,1.2
2022-12-11T21:26:21.758Z,1.22
2022-12-11T21:31:41.562Z,1.19
2022-12-11T21:37:01.802Z,1.2
2022-12-11T21:42:21.377Z,1.2
2022-12-11T21:47:39.730Z,1.16
2022-12-11T21:52:59.172Z,1.16
2022-12-11T21:58:18.177Z,1.19
2022-12-11T22:03:38.270Z,1.16
2022-12-11T22:08:57.179Z,1.16
2022-12-11T22:15:31.303Z,1.15
2022-12-11T22:19:36.945Z,1.15
2022-12-11T22:24:56.041Z,1.16
2022-12-11T22:30:16.070Z,1.16
2022-12-11T22:35:35.057Z,1.15
2022-12-11T22:40:54.450Z,1.15
2022-12-11T22:46:13.593Z,1.13
2022-12-11T22:51:32.417Z,1.15
2022-12-11T22:56:51.289Z,1.13
2022-12-11T23:02:10.008Z,1.13
2022-12-11T23:07:29.551Z,1.15
2022-12-11T23:12:49.354Z,1.13
2022-12-11T23:18:08.820Z,1.12
2022-12-11T23:23:27.770Z,1.13
2022-12-11T23:28:47.036Z,1.12
2022-12-11T23:34:05.910Z,1.1
2022-12-11T23:39:25.340Z,1.15
2022-12-11T23:44:45.351Z,1.12
2022-12-11T23:50:04.412Z,1.1
2022-12-11T23:55:23.347Z,1.12
